Time;durP1;ratioP1;P1;durP2;ratioP2;P2;SDS_P1;SDS_P2;PMS_P1;PMS_P2;Temp;Humidity;BMP_temperature;BMP_pressure;BME280_temperature;BME280_humidity;BME280_pressure;Samples;Min_cycle;Max_cycle;Signal;HPM_P1;HPM_P2
2020/12/14 00:08:10;;;;;;;46.3;28.8;;;;;;;0.21;86.73535;98756.22;;;;
2020/12/14 00:18:07;;;;;;;29.8;23.3;;;;;;;0.32;86.80273;98771.27;;;;
2020/12/14 00:28:05;;;;;;;37;26;;;;;;;0.27;86.96777;98762.44;;;;
2020/12/14 00:38:03;;;;;;;40.9;25.3;;;;;;;0.19;87.42285;98779.51;;;;
2020/12/14 00:48:01;;;;;;;29.1;23.5;;;;;;;0.37;86.67969;98783.83;;;;
2020/12/14 00:57:59;;;;;;;42.1;28;;;;;;;0.34;86.74023;98797.56;;;;
2020/12/14 01:07:56;;;;;;;27.2;22.3;;;;;;;0.35;86.12695;98788.54;;;;
2020/12/14 01:17:54;;;;;;;26.7;21.5;;;;;;;0.42;86.03125;98802.46;;;;
2020/12/14 01:27:52;;;;;;;31.5;20.2;;;;;;;0.38;85.91309;98804;;;;
2020/12/14 01:37:51;;;;;;;28;19.6;;;;;;;0.28;86.40039;98799.29;;;;
2020/12/14 01:47:50;;;;;;;33.5;26.4;;;;;;;0.28;86.80664;98791.33;;;;
2020/12/14 01:57:47;;;;;;;29.5;21.3;;;;;;;0.2;86.68945;98801.52;;;;
2020/12/14 02:07:43;;;;;;;20.6;18.1;;;;;;;0.15;87.16113;98801.41;;;;
2020/12/14 02:17:41;;;;;;;34.6;20.2;;;;;;;0.23;86.86133;98803.7;;;;
2020/12/14 02:27:39;;;;;;;27.9;19.9;;;;;;;0.14;87.4248;98805.89;;;;
2020/12/14 02:37:37;;;;;;;29.7;20;;;;;;;0.31;86.64746;98814.72;;;;
2020/12/14 02:47:35;;;;;;;25.7;18.6;;;;;;;0.41;86.41406;98814.13;;;;
2020/12/14 02:57:33;;;;;;;31.2;21.8;;;;;;;0.32;86.32813;98826.13;;;;
2020/12/14 03:07:31;;;;;;;24.1;17.8;;;;;;;0.35;86.96191;98830.95;;;;
2020/12/14 03:17:29;;;;;;;26.9;20.2;;;;;;;0.41;86.53711;98828.2;;;;
2020/12/14 03:27:26;;;;;;;20.5;15.5;;;;;;;0.53;86.02051;98828.13;;;;
2020/12/14 03:37:24;;;;;;;22.1;17.9;;;;;;;0.38;86.22168;98844.55;;;;
2020/12/14 03:47:22;;;;;;;21.7;14.6;;;;;;;0.42;86.1084;98864.25;;;;
2020/12/14 03:57:20;;;;;;;22.5;15.4;;;;;;;0.44;86.03516;98861.38;;;;
2020/12/14 04:07:20;;;;;;;23.1;18.4;;;;;;;0.41;86.10645;98867.16;;;;
2020/12/14 04:17:15;;;;;;;26.2;19.4;;;;;;;0.37;86.26465;98872.11;;;;
2020/12/14 04:27:13;;;;;;;19.2;16.1;;;;;;;0.43;86.13379;98881.77;;;;
2020/12/14 04:37:11;;;;;;;34.1;18.8;;;;;;;0.38;86.63965;98910.81;;;;
2020/12/14 04:47:09;;;;;;;22.3;20;;;;;;;0.38;86.59375;98918;;;;
2020/12/14 04:57:08;;;;;;;29.1;19.6;;;;;;;0.13;87.37793;98928.04;;;;
2020/12/14 05:07:04;;;;;;;30.8;22.1;;;;;;;0.15;87.73438;98932.06;;;;
2020/12/14 05:17:02;;;;;;;26.3;20.7;;;;;;;0.16;87.81055;98951.42;;;;
2020/12/14 05:27:00;;;;;;;28.1;19.4;;;;;;;0.22;87.53809;98963.75;;;;
2020/12/14 05:36:59;;;;;;;31.3;21.6;;;;;;;0.17;87.93555;98953.86;;;;
2020/12/14 05:46:56;;;;;;;24.2;20.2;;;;;;;0.1;88.19531;98957.66;;;;
2020/12/14 05:56:53;;;;;;;28.3;19.4;;;;;;;0.09;88.35547;98961.33;;;;
2020/12/14 06:06:54;;;;;;;29.1;20.4;;;;;;;0.08;88.8916;98967.66;;;;
2020/12/14 06:16:49;;;;;;;26.1;19.7;;;;;;;0.03;89.12305;98992.22;;;;
2020/12/14 06:26:48;;;;;;;26.1;16.9;;;;;;;0.12;88.80176;99008.56;;;;
2020/12/14 06:36:47;;;;;;;32;19.5;;;;;;;0.23;88.60645;99010.42;;;;
2020/12/14 06:46:42;;;;;;;24.3;17.6;;;;;;;0.21;88.60156;99013.29;;;;
2020/12/14 06:56:40;;;;;;;24.3;16.2;;;;;;;0.41;87.76758;99016.42;;;;
2020/12/14 07:06:38;;;;;;;24.4;15.7;;;;;;;0.65;87.68262;99019.86;;;;
2020/12/14 07:16:36;;;;;;;21.4;15.4;;;;;;;0.84;87.29297;99020.5;;;;
2020/12/14 07:26:34;;;;;;;25.4;22.2;;;;;;;0.96;86.82129;99039.88;;;;
2020/12/14 07:36:32;;;;;;;34.6;28.2;;;;;;;1;86.90527;99027.75;;;;
2020/12/14 07:46:30;;;;;;;31.8;25.5;;;;;;;1.15;87.07031;99022.73;;;;
2020/12/14 07:56:27;;;;;;;37.1;29.6;;;;;;;1.31;86.40918;99043.24;;;;
2020/12/14 08:06:25;;;;;;;30.9;26.9;;;;;;;1.51;85.40234;99053.44;;;;
2020/12/14 08:16:23;;;;;;;33;21.7;;;;;;;1.68;85.41406;99051.63;;;;
2020/12/14 08:26:24;;;;;;;28.6;19.5;;;;;;;1.76;84.37207;99061.88;;;;
2020/12/14 08:36:19;;;;;;;33.7;26.2;;;;;;;1.92;83.73047;99063.74;;;;
2020/12/14 08:46:18;;;;;;;38.3;23.7;;;;;;;2.02;83.60645;99061.26;;;;
2020/12/14 08:56:16;;;;;;;34.4;23.5;;;;;;;1.83;83.74609;99061.72;;;;
2020/12/14 09:06:15;;;;;;;28.4;25;;;;;;;2.06;84.27539;99063.43;;;;
2020/12/14 09:16:12;;;;;;;27.6;20.8;;;;;;;2.23;83.32617;99061.58;;;;
2020/12/14 09:26:10;;;;;;;24.5;18.5;;;;;;;2.45;82.10938;99038.53;;;;
2020/12/14 09:36:08;;;;;;;19.8;17.1;;;;;;;2.58;80.65332;99038.19;;;;
2020/12/14 09:46:09;;;;;;;17.3;14.2;;;;;;;2.37;80.12598;99033.62;;;;
2020/12/14 09:56:04;;;;;;;20.7;16.7;;;;;;;2.76;80.98535;99021.95;;;;
2020/12/14 10:06:02;;;;;;;16.6;13.8;;;;;;;2.73;80.40332;99011.8;;;;
2020/12/14 10:16:00;;;;;;;29;15.9;;;;;;;2.71;79.91309;99021.87;;;;
2020/12/14 10:25:58;;;;;;;17;12.9;;;;;;;2.93;79.64453;99013.91;;;;
2020/12/14 10:35:56;;;;;;;16.6;11.8;;;;;;;3.02;79.39551;99007.09;;;;
2020/12/14 10:45:54;;;;;;;19.3;13.5;;;;;;;3.05;79.08984;99003.95;;;;
2020/12/14 10:55:52;;;;;;;18.1;11;;;;;;;3.01;79.11816;99006.3;;;;
2020/12/14 11:05:50;;;;;;;16;9.8;;;;;;;3.02;78.02148;99013.22;;;;
2020/12/14 11:15:51;;;;;;;14.3;9.9;;;;;;;2.77;78.20801;99010.27;;;;
2020/12/14 11:25:48;;;;;;;18.3;13.8;;;;;;;2.88;79.02734;99006.66;;;;
2020/12/14 11:35:45;;;;;;;28.6;15.5;;;;;;;2.93;79.07031;98996.08;;;;
2020/12/14 11:45:43;;;;;;;18.3;14.1;;;;;;;2.86;78.42383;98986.67;;;;
2020/12/14 11:55:45;;;;;;;23;16;;;;;;;2.91;78.94336;99000.05;;;;
2020/12/14 12:05:39;;;;;;;27.8;17;;;;;;;2.61;79.10742;98996.98;;;;
2020/12/14 12:15:37;;;;;;;15.8;14.1;;;;;;;2.46;80.16504;98986.95;;;;
2020/12/14 12:25:35;;;;;;;15.2;12.7;;;;;;;2.46;79.7334;99002.91;;;;
2020/12/14 12:35:33;;;;;;;16.7;13.9;;;;;;;2.36;80.57813;99003.55;;;;
2020/12/14 12:45:31;;;;;;;20.7;13.4;;;;;;;2.09;81.36719;98984;;;;
2020/12/14 12:55:29;;;;;;;19.7;14.7;;;;;;;2.01;81.23047;99000.38;;;;
2020/12/14 13:05:28;;;;;;;17.3;14.5;;;;;;;2;81.39453;99018.17;;;;
2020/12/14 13:15:25;;;;;;;15.3;11.5;;;;;;;1.73;82.02832;99029.66;;;;
2020/12/14 13:25:24;;;;;;;19.8;14.7;;;;;;;1.77;81.44922;99023.61;;;;
2020/12/14 13:35:21;;;;;;;18.4;16.1;;;;;;;1.63;81.69824;99040.92;;;;
2020/12/14 13:45:19;;;;;;;22.4;15.4;;;;;;;1.56;82.76758;99040.27;;;;
2020/12/14 13:55:17;;;;;;;24.9;19.9;;;;;;;1.48;82.9502;99030.82;;;;
2020/12/14 14:05:15;;;;;;;49.2;38.6;;;;;;;1.28;84.12402;99027.79;;;;
2020/12/14 14:15:13;;;;;;;28.1;19.6;;;;;;;1.47;83.1123;99039.02;;;;
2020/12/14 14:25:11;;;;;;;30.6;21.5;;;;;;;1.23;83.7832;99045.45;;;;
2020/12/14 14:35:11;;;;;;;36.4;22.5;;;;;;;1.27;83.85645;99041.28;;;;
2020/12/14 14:45:07;;;;;;;31.1;20.9;;;;;;;1.21;83.77832;99047.55;;;;
2020/12/14 14:55:05;;;;;;;25.4;20.8;;;;;;;1.2;83.56934;99062.66;;;;
2020/12/14 15:05:03;;;;;;;103.6;80.9;;;;;;;1.22;83.38379;99051.79;;;;
2020/12/14 15:15:01;;;;;;;35.2;31.3;;;;;;;1.16;83.39355;99052.74;;;;
2020/12/14 15:24:58;;;;;;;38.7;28.8;;;;;;;1.09;83.7207;99052.06;;;;
2020/12/14 15:34:56;;;;;;;20.2;16.8;;;;;;;1.1;83.57031;99059.8;;;;
2020/12/14 15:44:54;;;;;;;23.8;19.3;;;;;;;1.05;82.7998;99048.27;;;;
2020/12/14 15:54:52;;;;;;;28;21.4;;;;;;;1.01;82.94727;99069.16;;;;
2020/12/14 16:04:51;;;;;;;20;15.1;;;;;;;0.92;82.36816;99068.72;;;;
2020/12/14 16:14:48;;;;;;;16.4;13.8;;;;;;;0.75;82.22559;99061.7;;;;
2020/12/14 16:24:48;;;;;;;20.5;15.5;;;;;;;0.7;82.54492;99077.5;;;;
2020/12/14 16:34:46;;;;;;;24.2;16.3;;;;;;;0.48;82.7334;99090.55;;;;
2020/12/14 16:44:41;;;;;;;19.6;15.3;;;;;;;0.33;83.51855;99087.53;;;;
2020/12/14 16:54:39;;;;;;;29.8;22;;;;;;;0.3;83.66602;99085.34;;;;
2020/12/14 17:04:48;;;;;;;30;20.9;;;;;;;0.19;83.91992;99075.52;;;;
2020/12/14 17:14:35;;;;;;;25.5;19.5;;;;;;;0.19;83.65625;99070.22;;;;
2020/12/14 17:24:35;;;;;;;65.5;48.5;;;;;;;0.05;84.59473;99060.86;;;;
2020/12/14 17:34:34;;;;;;;30.9;22.7;;;;;;;-0.05;84.65234;99072.02;;;;
2020/12/14 17:44:28;;;;;;;33.3;23.2;;;;;;;-0.11;85.23438;99078.23;;;;
2020/12/14 17:54:26;;;;;;;35.3;23.4;;;;;;;-0.13;85.42773;99083.75;;;;
2020/12/14 18:04:23;;;;;;;31.3;19.5;;;;;;;-0.2;85.29297;99098.92;;;;
2020/12/14 18:14:22;;;;;;;37;24.8;;;;;;;-0.35;85.53711;99082.66;;;;
2020/12/14 18:24:19;;;;;;;32.7;25.1;;;;;;;-0.56;86.88574;99067.26;;;;
2020/12/14 21:23:42;;;;;;;48.2;35.1;;;;;;;-2.02;90.39746;99025.91;;;;
2020/12/14 21:33:32;;;;;;;48.3;31.1;;;;;;;-1.85;90.31543;99029.63;;;;
2020/12/14 21:43:29;;;;;;;50.8;33.6;;;;;;;-1.77;90.20117;99035.42;;;;
2020/12/14 21:53:26;;;;;;;42.8;34;;;;;;;-1.78;90.3418;99036.47;;;;
2020/12/14 22:03:24;;;;;;;43;30.1;;;;;;;-1.75;89.8125;99037.86;;;;
2020/12/14 22:13:21;;;;;;;61.5;42;;;;;;;-1.71;89.71191;99041.69;;;;
2020/12/14 22:23:19;;;;;;;47;38.9;;;;;;;-1.7;90.46777;99044.09;;;;
2020/12/14 22:33:17;;;;;;;72.5;42.2;;;;;;;-1.7;90.71875;99036.17;;;;
2020/12/14 22:43:14;;;;;;;51.5;39.3;;;;;;;-1.61;90.47559;99047.28;;;;
2020/12/14 22:53:11;;;;;;;61;41;;;;;;;-1.7;90.5752;99059.17;;;;
2020/12/14 23:03:12;;;;;;;54.3;39.4;;;;;;;-1.44;90.46582;99063.38;;;;
2020/12/14 23:13:06;;;;;;;54.7;36.1;;;;;;;-1.59;89.62988;99067.17;;;;
2020/12/14 23:23:04;;;;;;;49.7;34.3;;;;;;;-1.61;90.13672;99071.07;;;;
2020/12/14 23:33:01;;;;;;;40.1;30.3;;;;;;;-1.57;90.58203;99069.61;;;;
2020/12/14 23:42:59;;;;;;;42.1;32.6;;;;;;;-1.5;89.85352;99065.08;;;;
2020/12/14 23:52:57;;;;;;;35.1;27.8;;;;;;;-1.4;89.44824;99069.86;;;;
